Time;durP1;ratioP1;P1;durP2;ratioP2;P2;SDS_P1;SDS_P2;PMS_P1;PMS_P2;Temp;Humidity;BMP_temperature;BMP_pressure;BME280_temperature;BME280_humidity;BME280_pressure;Samples;Min_cycle;Max_cycle;Signal;HPM_P1;HPM_P2
2022/09/18 00:02:01;;;;;;;0.00;0.00;;;10.20;99.90;;;;;;5033467;28;20556;-59
2022/09/18 00:04:27;;;;;;;0.00;0.00;;;10.30;99.90;;;;;;5049865;28;20644;-59
2022/09/18 00:06:53;;;;;;;0.00;0.00;;;10.30;99.90;;;;;;5053482;28;20269;-59
2022/09/18 00:09:18;;;;;;;0.00;0.00;;;10.30;99.90;;;;;;5044958;28;20597;-59
2022/09/18 00:11:47;;;;;;;0.00;0.00;;;10.20;99.90;;;;;;5053002;28;20633;-59
2022/09/18 00:14:16;;;;;;;0.00;0.00;;;10.20;99.90;;;;;;5043096;28;20268;-59
2022/09/18 00:16:42;;;;;;;0.00;0.00;;;10.20;99.90;;;;;;5034408;28;20190;-59
2022/09/18 00:19:08;;;;;;;0.00;0.00;;;10.20;99.90;;;;;;5049270;28;20200;-59
2022/09/18 00:21:36;;;;;;;0.00;0.00;;;10.20;99.90;;;;;;5045226;28;20213;-59
2022/09/18 00:24:03;;;;;;;0.00;0.00;;;10.20;99.90;;;;;;5033836;28;20179;-59
2022/09/18 00:26:28;;;;;;;0.00;0.00;;;10.20;99.90;;;;;;5039256;28;20283;-59
2022/09/18 00:28:56;;;;;;;0.00;0.00;;;10.20;99.90;;;;;;5047280;28;20614;-59
2022/09/18 00:31:24;;;;;;;0.00;0.00;;;10.10;99.90;;;;;;5051596;28;20580;-59
2022/09/18 00:33:51;;;;;;;0.00;0.00;;;10.10;99.90;;;;;;5045798;28;20169;-59
2022/09/18 00:36:18;;;;;;;0.08;0.08;;;10.10;99.90;;;;;;5046262;28;20277;-59
2022/09/18 00:38:44;;;;;;;0.00;0.00;;;10.00;99.90;;;;;;5033022;28;20540;-60
2022/09/18 00:41:35;;;;;;;0.00;0.00;;;10.00;99.90;;;;;;5034519;28;20206;-59
2022/09/18 00:44:28;;;;;;;0.00;0.00;;;10.00;99.90;;;;;;5037099;28;20255;-60
2022/09/18 00:47:05;;;;;;;0.00;0.00;;;9.90;99.90;;;;;;5032852;28;20183;-59
2022/09/18 00:49:31;;;;;;;0.00;0.00;;;9.90;99.90;;;;;;5042191;28;20242;-60
2022/09/18 00:51:59;;;;;;;0.43;0.22;;;9.90;99.90;;;;;;5047846;28;20186;-60
2022/09/18 00:54:37;;;;;;;0.00;0.00;;;9.90;99.90;;;;;;5041855;28;20299;-60
2022/09/18 00:57:07;;;;;;;0.00;0.00;;;9.90;99.90;;;;;;5024627;28;20174;-60
2022/09/18 00:59:35;;;;;;;0.00;0.00;;;9.80;99.90;;;;;;5045402;28;20841;-60
2022/09/18 01:02:01;;;;;;;0.00;0.00;;;9.90;99.90;;;;;;5049904;28;20232;-60
2022/09/18 01:04:28;;;;;;;0.00;0.00;;;9.80;99.90;;;;;;5034875;28;20182;-60
2022/09/18 01:07:08;;;;;;;0.00;0.00;;;9.80;99.90;;;;;;5039013;28;20276;-60
2022/09/18 01:10:00;;;;;;;0.00;0.00;;;9.80;99.90;;;;;;5037476;28;20232;-60
2022/09/18 01:12:52;;;;;;;0.00;0.00;;;9.80;99.90;;;;;;5046728;28;20182;-61
2022/09/18 01:15:23;;;;;;;0.00;0.00;;;9.80;99.90;;;;;;5038072;28;20529;-60
2022/09/18 01:18:22;;;;;;;0.00;0.00;;;9.80;99.90;;;;;;5049119;28;20173;-60
2022/09/18 01:21:15;;;;;;;0.00;0.00;;;9.80;99.90;;;;;;5045674;28;20175;-60
2022/09/18 01:24:14;;;;;;;0.00;0.00;;;9.80;99.90;;;;;;5041435;28;20543;-60
2022/09/18 01:26:57;;;;;;;0.00;0.00;;;9.80;99.90;;;;;;5033606;28;20510;-60
2022/09/18 01:29:41;;;;;;;0.00;0.00;;;9.80;99.90;;;;;;5044443;28;20584;-60
2022/09/18 01:32:16;;;;;;;0.00;0.00;;;9.80;99.90;;;;;;5033928;28;20178;-60
2022/09/18 01:34:59;;;;;;;0.00;0.00;;;9.80;99.90;;;;;;5039633;28;20555;-60
2022/09/18 01:37:37;;;;;;;0.00;0.00;;;9.70;99.90;;;;;;5046885;28;20192;-60
2022/09/18 01:40:14;;;;;;;0.00;0.00;;;9.70;99.90;;;;;;5047445;28;20185;-61
2022/09/18 01:42:43;;;;;;;0.00;0.00;;;9.70;99.90;;;;;;5039865;28;20611;-61
2022/09/18 01:45:13;;;;;;;0.00;0.00;;;9.70;99.90;;;;;;5036751;28;20182;-61
2022/09/18 01:47:56;;;;;;;0.00;0.00;;;9.70;99.90;;;;;;5030976;28;20170;-60
2022/09/18 01:50:25;;;;;;;0.00;0.00;;;9.70;99.90;;;;;;5045723;28;20188;-60
2022/09/18 01:52:55;;;;;;;0.00;0.00;;;9.70;99.90;;;;;;5046019;28;20184;-61
2022/09/18 01:55:27;;;;;;;0.00;0.00;;;9.70;99.90;;;;;;5042472;28;20174;-61
2022/09/18 01:57:59;;;;;;;0.00;0.00;;;9.70;99.90;;;;;;5044312;28;20197;-61
2022/09/18 02:00:25;;;;;;;0.00;0.00;;;9.70;99.90;;;;;;5044908;28;20181;-60
2022/09/18 02:02:59;;;;;;;0.00;0.00;;;9.70;99.90;;;;;;5049091;28;20240;-61
2022/09/18 02:05:38;;;;;;;0.00;0.00;;;9.70;99.90;;;;;;5042757;28;20189;-60
2022/09/18 02:08:10;;;;;;;0.00;0.00;;;9.70;99.90;;;;;;5032652;28;20531;-60
2022/09/18 02:10:43;;;;;;;0.00;0.00;;;9.70;99.90;;;;;;5030543;28;20214;-60
2022/09/18 02:13:12;;;;;;;0.00;0.00;;;9.60;99.90;;;;;;5036956;28;20194;-60
2022/09/18 02:15:40;;;;;;;0.00;0.00;;;9.60;99.90;;;;;;5042792;28;20212;-61
2022/09/18 02:18:10;;;;;;;0.00;0.00;;;9.70;99.90;;;;;;5036965;28;20664;-61
2022/09/18 02:20:40;;;;;;;0.00;0.00;;;9.60;99.90;;;;;;5033458;28;20208;-61
2022/09/18 02:23:07;;;;;;;0.00;0.00;;;9.60;99.90;;;;;;5040391;28;20217;-61
2022/09/18 02:26:00;;;;;;;0.00;0.00;;;9.60;99.90;;;;;;5037208;28;20618;-61
2022/09/18 02:28:28;;;;;;;0.00;0.00;;;9.70;99.90;;;;;;5033033;28;20186;-61
2022/09/18 02:30:54;;;;;;;0.00;0.00;;;9.60;99.90;;;;;;5035202;28;20201;-61
2022/09/18 02:33:38;;;;;;;0.00;0.00;;;9.70;99.90;;;;;;5032008;28;20209;-61
2022/09/18 02:36:28;;;;;;;0.10;0.03;;;9.70;99.90;;;;;;5037155;28;20263;-60
2022/09/18 02:39:13;;;;;;;0.00;0.00;;;9.70;99.90;;;;;;5050618;28;20247;-60
2022/09/18 02:41:57;;;;;;;0.00;0.00;;;9.70;99.90;;;;;;5048229;28;20237;-60
2022/09/18 02:44:33;;;;;;;0.00;0.00;;;9.70;99.90;;;;;;5039843;28;20174;-60
2022/09/18 02:47:26;;;;;;;0.00;0.00;;;9.70;99.90;;;;;;5035520;28;20186;-60
2022/09/18 02:50:13;;;;;;;0.00;0.00;;;9.70;99.90;;;;;;5043419;28;20177;-60
2022/09/18 02:52:48;;;;;;;0.00;0.00;;;9.70;99.90;;;;;;5044580;28;20204;-61
2022/09/18 02:55:24;;;;;;;0.00;0.00;;;9.70;99.90;;;;;;5048821;28;20559;-61
2022/09/18 02:58:10;;;;;;;0.00;0.00;;;9.70;99.90;;;;;;5036503;28;20246;-61
2022/09/18 03:00:36;;;;;;;0.00;0.00;;;9.70;99.90;;;;;;5028906;28;20182;-61
2022/09/18 03:03:02;;;;;;;0.00;0.00;;;9.70;99.90;;;;;;5041554;28;20221;-60
2022/09/18 03:05:27;;;;;;;0.00;0.00;;;9.70;99.90;;;;;;5035424;28;20183;-61
2022/09/18 03:07:53;;;;;;;0.00;0.00;;;9.70;99.90;;;;;;5039123;28;20243;-61
2022/09/18 03:10:19;;;;;;;0.00;0.00;;;9.70;99.90;;;;;;5041842;28;20181;-61
2022/09/18 03:12:44;;;;;;;0.00;0.00;;;9.60;99.90;;;;;;5042465;28;20663;-61
2022/09/18 03:15:10;;;;;;;0.00;0.00;;;9.70;99.90;;;;;;5047396;28;20233;-60
2022/09/18 03:17:36;;;;;;;0.00;0.00;;;9.60;99.90;;;;;;5037335;28;20196;-60
2022/09/18 03:20:03;;;;;;;0.00;0.00;;;9.60;99.90;;;;;;5044681;28;20189;-61
2022/09/18 03:22:28;;;;;;;0.00;0.00;;;9.60;99.90;;;;;;5037371;28;20244;-61
2022/09/18 03:24:54;;;;;;;0.00;0.00;;;9.60;99.90;;;;;;5034334;28;20178;-60
2022/09/18 03:27:20;;;;;;;0.00;0.00;;;9.60;99.90;;;;;;5040016;28;20186;-61
2022/09/18 03:29:45;;;;;;;0.00;0.00;;;9.60;99.90;;;;;;5042438;28;20537;-61
2022/09/18 03:32:11;;;;;;;0.00;0.00;;;9.60;99.90;;;;;;5046495;28;20186;-60
2022/09/18 03:34:37;;;;;;;0.00;0.00;;;9.60;99.90;;;;;;5036179;28;20186;-61
2022/09/18 03:37:03;;;;;;;0.00;0.00;;;9.60;99.90;;;;;;5040706;28;20261;-61
2022/09/18 03:39:29;;;;;;;0.00;0.00;;;9.60;99.90;;;;;;5041590;28;20325;-61
2022/09/18 03:41:54;;;;;;;0.00;0.00;;;9.60;99.90;;;;;;5035888;28;20563;-61
2022/09/18 03:44:20;;;;;;;0.00;0.00;;;9.60;99.90;;;;;;5049624;28;20193;-61
2022/09/18 03:46:45;;;;;;;0.00;0.00;;;9.60;99.90;;;;;;5045151;28;20208;-61
2022/09/18 03:49:11;;;;;;;0.00;0.00;;;9.60;99.90;;;;;;5042607;28;20181;-61
2022/09/18 03:51:36;;;;;;;0.00;0.00;;;9.60;99.90;;;;;;5043887;28;20173;-61
2022/09/18 03:54:02;;;;;;;0.00;0.00;;;9.60;99.90;;;;;;5051803;28;20192;-61
2022/09/18 03:56:28;;;;;;;0.00;0.00;;;9.60;99.90;;;;;;5046042;28;20272;-61
2022/09/18 03:58:53;;;;;;;0.00;0.00;;;9.60;99.90;;;;;;5046935;28;20184;-61
2022/09/18 04:01:19;;;;;;;0.00;0.00;;;9.60;99.90;;;;;;5051645;28;20259;-60
2022/09/18 04:03:44;;;;;;;0.00;0.00;;;9.60;99.90;;;;;;5049758;28;20974;-61
2022/09/18 04:06:10;;;;;;;0.10;0.10;;;9.60;99.90;;;;;;5049532;28;20670;-61
2022/09/18 04:08:37;;;;;;;0.00;0.00;;;9.60;99.90;;;;;;5042358;28;20221;-61
2022/09/18 04:11:03;;;;;;;0.00;0.00;;;9.60;99.90;;;;;;5045369;28;20248;-61
2022/09/18 04:13:32;;;;;;;0.00;0.00;;;9.60;99.90;;;;;;5048943;28;20316;-61
2022/09/18 04:15:58;;;;;;;0.00;0.00;;;9.50;99.90;;;;;;5028815;28;20206;-60
2022/09/18 04:18:23;;;;;;;0.10;0.10;;;9.50;99.90;;;;;;5037511;28;20696;-60
2022/09/18 04:20:50;;;;;;;0.00;0.00;;;9.50;99.90;;;;;;5049699;28;20303;-61
2022/09/18 04:23:16;;;;;;;0.00;0.00;;;9.50;99.90;;;;;;5036510;28;20220;-61
2022/09/18 04:25:42;;;;;;;0.00;0.00;;;9.50;99.90;;;;;;5041657;28;20182;-60
2022/09/18 04:28:11;;;;;;;0.00;0.00;;;9.50;99.90;;;;;;5041263;28;20460;-61
2022/09/18 04:30:37;;;;;;;0.00;0.00;;;9.60;99.90;;;;;;5037224;28;20194;-61
2022/09/18 04:33:03;;;;;;;0.17;0.17;;;9.50;99.90;;;;;;5041457;28;20182;-61
2022/09/18 04:35:29;;;;;;;0.00;0.00;;;9.60;99.90;;;;;;5033716;28;20182;-61
2022/09/18 04:37:54;;;;;;;0.00;0.00;;;9.60;99.90;;;;;;5036135;28;20193;-61
2022/09/18 04:40:20;;;;;;;0.00;0.00;;;9.60;99.90;;;;;;5044467;28;20244;-60
2022/09/18 04:42:46;;;;;;;0.00;0.00;;;9.60;99.90;;;;;;5034211;28;20224;-60
2022/09/18 04:45:11;;;;;;;0.10;0.10;;;9.60;99.90;;;;;;5045085;28;20256;-60
2022/09/18 04:47:37;;;;;;;0.00;0.00;;;9.60;99.90;;;;;;5036029;28;20174;-60
2022/09/18 04:50:04;;;;;;;0.00;0.00;;;9.60;99.90;;;;;;5032794;28;20170;-60
2022/09/18 04:52:29;;;;;;;0.00;0.00;;;9.60;99.90;;;;;;5032664;28;20606;-60
2022/09/18 04:54:56;;;;;;;0.05;0.05;;;9.60;99.90;;;;;;5032499;28;20220;-60
2022/09/18 04:57:21;;;;;;;0.10;0.10;;;9.60;99.90;;;;;;5039330;28;20568;-60
2022/09/18 04:59:47;;;;;;;0.00;0.00;;;9.60;99.90;;;;;;5037847;28;20185;-60
2022/09/18 05:02:12;;;;;;;0.00;0.00;;;9.60;99.90;;;;;;5035026;28;20652;-60
2022/09/18 05:04:38;;;;;;;0.00;0.00;;;9.60;99.90;;;;;;5039114;28;20748;-60
2022/09/18 05:07:04;;;;;;;0.25;0.08;;;9.60;99.90;;;;;;5041899;28;20177;-60
2022/09/18 05:09:30;;;;;;;0.00;0.00;;;9.60;99.90;;;;;;5035037;28;20184;-60
2022/09/18 05:11:56;;;;;;;0.10;0.10;;;9.60;99.90;;;;;;5041482;28;20205;-60
2022/09/18 05:14:21;;;;;;;0.10;0.10;;;9.60;99.90;;;;;;5046995;28;20189;-60
2022/09/18 05:16:47;;;;;;;0.00;0.00;;;9.60;99.90;;;;;;5036333;28;20182;-60
2022/09/18 05:19:12;;;;;;;0.00;0.00;;;9.60;99.90;;;;;;5045031;28;20636;-60
2022/09/18 05:21:38;;;;;;;0.00;0.00;;;9.60;99.90;;;;;;5036770;28;20244;-60
2022/09/18 05:24:03;;;;;;;0.00;0.00;;;9.60;99.90;;;;;;5038185;28;20186;-60
2022/09/18 05:26:30;;;;;;;0.00;0.00;;;9.60;99.90;;;;;;5043124;28;20287;-60
2022/09/18 05:28:55;;;;;;;0.10;0.10;;;9.60;99.90;;;;;;5043017;28;20258;-60
2022/09/18 05:31:21;;;;;;;0.05;0.00;;;9.60;99.90;;;;;;5033936;28;20598;-60
2022/09/18 05:33:46;;;;;;;0.10;0.10;;;9.60;99.90;;;;;;5041351;28;20192;-61
2022/09/18 05:36:12;;;;;;;0.03;0.03;;;9.60;99.90;;;;;;5040950;28;20526;-60
2022/09/18 05:38:37;;;;;;;0.00;0.00;;;9.60;99.90;;;;;;5034217;28;20261;-61
2022/09/18 05:41:03;;;;;;;0.00;0.00;;;9.60;99.90;;;;;;5042312;28;20181;-61
2022/09/18 05:43:29;;;;;;;0.00;0.00;;;9.60;99.90;;;;;;5049993;28;20185;-61
2022/09/18 05:45:55;;;;;;;0.00;0.00;;;9.60;99.90;;;;;;5047529;28;20174;-60
2022/09/18 05:48:20;;;;;;;0.00;0.00;;;9.60;99.90;;;;;;5048230;28;20174;-61
2022/09/18 05:50:47;;;;;;;0.00;0.00;;;9.60;99.90;;;;;;5045188;28;20268;-61
2022/09/18 05:53:15;;;;;;;0.00;0.00;;;9.60;99.90;;;;;;5034182;28;20235;-61
2022/09/18 05:55:41;;;;;;;0.00;0.00;;;9.60;99.90;;;;;;5049177;28;20173;-61
2022/09/18 05:58:11;;;;;;;0.00;0.00;;;9.70;99.90;;;;;;5031604;28;20174;-61
2022/09/18 06:00:37;;;;;;;0.00;0.00;;;9.70;99.90;;;;;;5048985;28;20189;-61
2022/09/18 06:03:08;;;;;;;0.00;0.00;;;9.70;99.90;;;;;;5039909;28;20226;-61
2022/09/18 06:05:36;;;;;;;0.00;0.00;;;9.70;99.90;;;;;;5032707;28;20261;-61
2022/09/18 06:08:04;;;;;;;0.00;0.00;;;9.70;99.90;;;;;;5039206;28;20181;-61
2022/09/18 06:10:31;;;;;;;0.10;0.08;;;9.70;99.90;;;;;;5047271;28;20196;-61
2022/09/18 06:13:01;;;;;;;0.00;0.00;;;9.80;99.90;;;;;;5044910;28;20173;-60
2022/09/18 06:15:27;;;;;;;0.00;0.00;;;9.80;99.90;;;;;;5035778;28;20185;-62
2022/09/18 06:17:52;;;;;;;0.00;0.00;;;9.80;99.90;;;;;;5037705;28;20534;-61
2022/09/18 06:20:18;;;;;;;0.13;0.08;;;9.80;99.90;;;;;;5043076;28;20545;-61
2022/09/18 06:22:44;;;;;;;0.00;0.00;;;9.80;99.90;;;;;;5027894;28;20214;-61
2022/09/18 06:25:10;;;;;;;0.00;0.00;;;9.90;99.90;;;;;;5043046;28;20711;-61
2022/09/18 06:27:35;;;;;;;0.00;0.00;;;9.90;99.90;;;;;;5034079;28;20243;-61
2022/09/18 06:30:01;;;;;;;0.00;0.00;;;9.90;99.90;;;;;;5038923;28;20704;-61
2022/09/18 06:32:26;;;;;;;0.00;0.00;;;9.90;99.90;;;;;;5042076;28;20246;-61
2022/09/18 06:34:52;;;;;;;0.00;0.00;;;9.90;99.90;;;;;;5043401;28;20177;-61
2022/09/18 06:37:17;;;;;;;0.00;0.00;;;10.00;99.90;;;;;;5038759;28;20198;-61
2022/09/18 06:39:44;;;;;;;0.00;0.00;;;10.00;99.90;;;;;;5046440;28;20183;-60
2022/09/18 06:42:09;;;;;;;0.13;0.13;;;10.00;99.90;;;;;;5038024;28;20213;-61
2022/09/18 06:44:35;;;;;;;0.00;0.00;;;10.10;99.90;;;;;;5051524;28;20189;-61
2022/09/18 06:47:01;;;;;;;0.00;0.00;;;10.10;99.90;;;;;;5045114;28;20205;-61
2022/09/18 06:49:26;;;;;;;0.10;0.10;;;10.10;99.90;;;;;;5044821;28;20173;-61
2022/09/18 06:51:52;;;;;;;0.00;0.00;;;10.20;99.90;;;;;;5042922;28;20210;-61
2022/09/18 06:54:17;;;;;;;0.00;0.00;;;10.30;99.90;;;;;;5039423;28;20189;-61
2022/09/18 06:56:45;;;;;;;0.00;0.00;;;10.30;99.90;;;;;;5046666;28;20181;-61
2022/09/18 06:59:10;;;;;;;0.00;0.00;;;10.40;99.90;;;;;;5035881;28;20699;-59
2022/09/18 07:01:36;;;;;;;0.00;0.00;;;10.40;99.90;;;;;;5045251;28;20213;-61
2022/09/18 07:04:01;;;;;;;0.00;0.00;;;10.50;99.90;;;;;;5043717;28;20704;-61
2022/09/18 07:06:27;;;;;;;0.00;0.00;;;10.50;99.90;;;;;;5037161;28;20190;-61
2022/09/18 07:08:52;;;;;;;0.00;0.00;;;10.60;99.90;;;;;;5046848;28;20657;-61
2022/09/18 07:11:18;;;;;;;0.20;0.20;;;10.60;99.90;;;;;;5038765;28;20185;-61
2022/09/18 07:13:45;;;;;;;0.00;0.00;;;10.60;99.90;;;;;;5044279;28;20754;-60
2022/09/18 07:16:10;;;;;;;0.00;0.00;;;10.60;99.90;;;;;;5042971;28;20174;-61
2022/09/18 07:18:36;;;;;;;0.00;0.00;;;10.60;99.90;;;;;;5037311;28;20189;-61
2022/09/18 07:21:01;;;;;;;0.00;0.00;;;10.60;99.90;;;;;;5046716;28;20273;-61
2022/09/18 07:23:29;;;;;;;0.00;0.00;;;10.70;99.90;;;;;;5035475;28;20182;-60
2022/09/18 07:25:58;;;;;;;0.00;0.00;;;10.80;99.90;;;;;;5037687;28;20260;-60
2022/09/18 07:28:23;;;;;;;0.00;0.00;;;10.80;99.90;;;;;;5045805;28;20193;-62
2022/09/18 07:30:49;;;;;;;0.00;0.00;;;11.00;99.90;;;;;;5049745;28;20182;-62
2022/09/18 07:33:14;;;;;;;0.00;0.00;;;11.10;99.90;;;;;;5044788;28;20182;-60
2022/09/18 07:35:40;;;;;;;0.00;0.00;;;11.10;99.90;;;;;;5035114;28;20540;-60
2022/09/18 07:38:06;;;;;;;0.00;0.00;;;11.20;99.90;;;;;;5042324;28;20649;-63
2022/09/18 07:40:32;;;;;;;0.00;0.00;;;11.20;99.90;;;;;;5036803;28;20521;-62
2022/09/18 07:43:06;;;;;;;0.38;0.13;;;11.20;99.90;;;;;;5053607;28;20224;-63
2022/09/18 07:45:32;;;;;;;0.00;0.00;;;11.30;99.90;;;;;;5046217;28;20188;-63
2022/09/18 07:48:03;;;;;;;0.00;0.00;;;11.30;99.90;;;;;;5033933;28;20178;-64
2022/09/18 07:50:28;;;;;;;0.00;0.00;;;11.30;99.90;;;;;;5040403;28;20273;-61
2022/09/18 07:52:56;;;;;;;0.00;0.00;;;11.30;99.90;;;;;;5049158;28;20696;-63
2022/09/18 07:55:23;;;;;;;0.05;0.05;;;11.30;99.90;;;;;;5048019;28;20261;-62
2022/09/18 07:57:57;;;;;;;0.05;0.05;;;11.30;99.90;;;;;;5048815;28;20185;-62
2022/09/18 08:00:24;;;;;;;0.00;0.00;;;11.30;99.90;;;;;;5037307;28;20177;-60
2022/09/18 08:02:49;;;;;;;0.00;0.00;;;11.40;99.90;;;;;;5049482;28;20280;-63
2022/09/18 08:05:15;;;;;;;0.00;0.00;;;11.50;99.90;;;;;;5047731;28;20190;-66
2022/09/18 08:07:41;;;;;;;0.00;0.00;;;11.70;99.90;;;;;;5037342;28;20603;-62
2022/09/18 08:10:09;;;;;;;0.00;0.00;;;11.70;99.90;;;;;;5041164;28;20265;-63
2022/09/18 08:12:35;;;;;;;0.45;0.20;;;11.90;99.90;;;;;;5047019;28;20186;-61
2022/09/18 08:15:00;;;;;;;0.00;0.00;;;11.90;99.90;;;;;;5033422;28;20240;-61
2022/09/18 08:17:26;;;;;;;0.00;0.00;;;12.00;99.90;;;;;;5036690;28;20180;-62
2022/09/18 08:19:52;;;;;;;0.00;0.00;;;12.10;99.90;;;;;;5053386;28;20175;-62
2022/09/18 08:22:17;;;;;;;0.00;0.00;;;12.10;99.90;;;;;;5038743;28;20214;-62
2022/09/18 08:24:43;;;;;;;0.00;0.00;;;12.00;99.90;;;;;;5033461;28;20177;-62
2022/09/18 08:27:08;;;;;;;0.00;0.00;;;12.00;99.90;;;;;;5046259;28;20185;-61
2022/09/18 08:29:34;;;;;;;0.00;0.00;;;12.10;99.90;;;;;;5046195;28;20641;-62
2022/09/18 08:31:59;;;;;;;0.00;0.00;;;12.30;99.90;;;;;;5032989;28;20186;-61
2022/09/18 08:34:26;;;;;;;0.00;0.00;;;12.30;99.90;;;;;;5033065;28;20529;-62
2022/09/18 08:36:51;;;;;;;0.10;0.10;;;12.40;99.90;;;;;;5049453;28;20197;-61
2022/09/18 08:39:17;;;;;;;0.00;0.00;;;12.50;99.90;;;;;;5050598;28;20174;-62
2022/09/18 08:41:42;;;;;;;0.00;0.00;;;12.60;99.90;;;;;;5042859;28;20210;-61
2022/09/18 08:44:23;;;;;;;0.00;0.00;;;12.70;99.90;;;;;;5037114;28;20699;-61
2022/09/18 08:47:03;;;;;;;0.00;0.00;;;12.80;99.90;;;;;;5037894;28;20182;-61
2022/09/18 08:49:43;;;;;;;0.00;0.00;;;12.80;99.90;;;;;;5032499;28;20228;-60
2022/09/18 08:52:21;;;;;;;0.00;0.00;;;12.90;99.90;;;;;;5032820;28;20228;-60
2022/09/18 08:55:05;;;;;;;0.05;0.05;;;12.90;99.90;;;;;;5033890;28;20189;-60
2022/09/18 08:57:44;;;;;;;0.00;0.00;;;12.90;99.90;;;;;;5035626;28;20628;-60
2022/09/18 09:00:15;;;;;;;0.00;0.00;;;12.80;99.90;;;;;;5032782;28;20178;-60
2022/09/18 09:02:53;;;;;;;0.00;0.00;;;12.80;99.90;;;;;;5045173;28;20233;-60
2022/09/18 09:05:30;;;;;;;0.10;0.10;;;12.70;99.90;;;;;;5036164;28;20186;-60
2022/09/18 09:08:13;;;;;;;0.00;0.00;;;12.70;99.90;;;;;;5035250;28;20664;-60
2022/09/18 09:11:01;;;;;;;0.00;0.00;;;12.80;99.90;;;;;;5052255;28;20173;-60
2022/09/18 09:13:48;;;;;;;0.00;0.00;;;12.80;99.90;;;;;;5033907;28;20698;-60
2022/09/18 09:16:38;;;;;;;0.00;0.00;;;12.80;99.90;;;;;;5043435;28;20869;-60
2022/09/18 09:19:25;;;;;;;0.00;0.00;;;12.60;99.90;;;;;;5012601;28;20179;-62
2022/09/18 09:22:18;;;;;;;1.08;0.77;;;12.70;99.90;;;;;;5039902;28;20216;-61
2022/09/18 09:25:20;;;;;;;0.70;0.08;;;13.00;99.90;;;;;;5050109;28;20250;-61
2022/09/18 09:27:57;;;;;;;0.88;0.47;;;13.30;99.90;;;;;;5052040;28;20674;-62
2022/09/18 09:30:23;;;;;;;0.20;0.20;;;13.60;99.90;;;;;;5045118;28;20193;-61
2022/09/18 09:32:55;;;;;;;0.10;0.10;;;14.10;99.90;;;;;;5039917;28;20177;-62
2022/09/18 09:35:24;;;;;;;0.00;0.00;;;14.10;99.90;;;;;;5042016;28;20178;-61
2022/09/18 09:37:50;;;;;;;0.25;0.25;;;14.10;99.90;;;;;;5031936;28;20185;-61
2022/09/18 09:40:38;;;;;;;0.00;0.00;;;14.30;99.90;;;;;;5030713;28;20186;-61
2022/09/18 09:43:19;;;;;;;0.00;0.00;;;14.90;99.90;;;;;;5040494;28;20213;-61
2022/09/18 09:45:47;;;;;;;0.08;0.08;;;15.30;99.90;;;;;;5041500;28;20204;-61
2022/09/18 09:48:31;;;;;;;0.10;0.10;;;15.30;99.90;;;;;;5036702;28;20185;-62
2022/09/18 09:51:12;;;;;;;0.00;0.00;;;15.20;99.90;;;;;;5036040;28;20178;-62
2022/09/18 09:53:38;;;;;;;0.00;0.00;;;15.40;99.90;;;;;;5032083;28;20612;-62
2022/09/18 09:56:27;;;;;;;0.00;0.00;;;15.50;99.90;;;;;;5045623;28;20260;-62
2022/09/18 09:59:06;;;;;;;0.00;0.00;;;15.70;99.90;;;;;;5012169;28;20178;-61
2022/09/18 10:01:37;;;;;;;0.00;0.00;;;15.80;99.90;;;;;;5032167;28;20669;-61
2022/09/18 10:04:32;;;;;;;0.00;0.00;;;15.70;99.90;;;;;;5041178;28;20561;-61
2022/09/18 10:07:13;;;;;;;0.00;0.00;;;15.80;99.90;;;;;;5032390;28;20244;-60
2022/09/18 10:10:00;;;;;;;0.00;0.00;;;15.70;99.90;;;;;;5042189;28;20181;-61
2022/09/18 10:12:45;;;;;;;0.00;0.00;;;15.80;99.90;;;;;;5047986;28;20177;-61
2022/09/18 10:15:19;;;;;;;0.00;0.00;;;15.80;99.90;;;;;;5031426;28;20188;-62
2022/09/18 10:17:49;;;;;;;0.28;0.10;;;16.20;99.90;;;;;;5053881;28;20183;-64
2022/09/18 10:20:20;;;;;;;0.00;0.00;;;16.60;99.90;;;;;;5049608;28;20189;-64
2022/09/18 10:22:47;;;;;;;0.00;0.00;;;16.90;99.90;;;;;;5036689;28;20213;-63
2022/09/18 10:25:29;;;;;;;0.05;0.00;;;17.00;98.90;;;;;;5035558;28;20174;-64
2022/09/18 10:27:54;;;;;;;0.00;0.00;;;17.10;99.20;;;;;;5048903;28;20182;-64
2022/09/18 10:30:20;;;;;;;0.00;0.00;;;16.90;99.10;;;;;;5050101;28;20189;-64
2022/09/18 10:32:45;;;;;;;0.00;0.00;;;17.00;99.90;;;;;;5051644;28;20166;-65
2022/09/18 10:35:29;;;;;;;0.10;0.10;;;17.00;98.50;;;;;;5039593;28;20504;-64
2022/09/18 10:37:55;;;;;;;0.00;0.00;;;16.60;98.70;;;;;;5051615;28;20188;-62
2022/09/18 10:40:37;;;;;;;0.00;0.00;;;16.30;99.60;;;;;;5039271;28;20186;-61
2022/09/18 10:43:03;;;;;;;0.95;0.95;;;16.20;99.90;;;;;;5026743;28;20205;-61
2022/09/18 10:45:36;;;;;;;1.13;1.08;;;16.40;99.90;;;;;;5038863;28;20258;-62
2022/09/18 10:48:15;;;;;;;0.28;0.22;;;16.60;99.60;;;;;;5024794;28;20179;-62
2022/09/18 10:51:01;;;;;;;0.55;0.43;;;16.80;99.20;;;;;;5047161;28;20273;-62
2022/09/18 10:53:37;;;;;;;0.00;0.00;;;16.70;99.20;;;;;;5037745;28;20204;-60
2022/09/18 10:56:14;;;;;;;0.00;0.00;;;16.60;98.90;;;;;;5045810;28;20181;-60
2022/09/18 10:58:39;;;;;;;0.00;0.00;;;16.60;98.50;;;;;;5035619;28;20181;-61
2022/09/18 11:01:06;;;;;;;0.00;0.00;;;16.60;98.00;;;;;;5049007;28;20708;-65
2022/09/18 11:03:39;;;;;;;0.00;0.00;;;16.60;97.40;;;;;;5038383;28;20319;-60
2022/09/18 11:06:22;;;;;;;0.00;0.00;;;16.50;97.50;;;;;;5037681;28;20188;-60
2022/09/18 11:08:51;;;;;;;0.00;0.00;;;16.50;97.20;;;;;;5037452;28;20644;-59
2022/09/18 11:11:30;;;;;;;0.00;0.00;;;16.40;97.90;;;;;;5040506;28;20210;-60
2022/09/18 11:14:15;;;;;;;0.00;0.00;;;16.20;97.30;;;;;;5048827;28;20220;-59
2022/09/18 11:16:42;;;;;;;0.05;0.05;;;15.80;97.20;;;;;;5033475;28;20572;-59
2022/09/18 11:19:11;;;;;;;0.00;0.00;;;15.70;97.90;;;;;;5033320;28;20170;-60
2022/09/18 11:21:46;;;;;;;0.00;0.00;;;15.50;98.00;;;;;;5022024;28;20214;-60
2022/09/18 11:24:26;;;;;;;0.00;0.00;;;15.50;97.90;;;;;;5013592;28;20170;-59
2022/09/18 11:26:54;;;;;;;0.00;0.00;;;15.40;98.40;;;;;;5013665;28;20186;-59
2022/09/18 11:29:38;;;;;;;0.00;0.00;;;15.40;99.10;;;;;;5013407;28;20183;-60
2022/09/18 11:32:24;;;;;;;0.00;0.00;;;15.30;98.20;;;;;;5013427;28;20535;-59
2022/09/18 11:34:53;;;;;;;0.00;0.00;;;15.30;98.50;;;;;;5013347;28;20178;-59
2022/09/18 11:37:36;;;;;;;0.00;0.00;;;15.40;98.50;;;;;;5013243;28;20197;-59
2022/09/18 11:40:13;;;;;;;0.00;0.00;;;15.60;99.00;;;;;;5013462;28;20210;-60
2022/09/18 11:42:43;;;;;;;0.00;0.00;;;15.60;97.90;;;;;;5013144;28;20701;-60
2022/09/18 11:45:37;;;;;;;0.73;0.20;;;15.70;98.20;;;;;;5013175;28;20179;-60
2022/09/18 11:48:25;;;;;;;0.00;0.00;;;15.70;96.80;;;;;;5013252;28;20183;-59
2022/09/18 11:50:55;;;;;;;0.00;0.00;;;15.70;95.50;;;;;;5013149;28;20183;-60
2022/09/18 11:53:32;;;;;;;0.00;0.00;;;15.80;95.50;;;;;;5013033;28;20171;-59
2022/09/18 11:56:07;;;;;;;0.00;0.00;;;15.90;95.60;;;;;;5013055;28;20178;-59
2022/09/18 11:58:42;;;;;;;0.00;0.00;;;15.90;95.60;;;;;;5013058;28;20186;-59
2022/09/18 12:01:32;;;;;;;0.00;0.00;;;15.80;95.20;;;;;;5012818;28;20178;-59
2022/09/18 12:04:29;;;;;;;0.00;0.00;;;15.90;96.30;;;;;;4977880;28;1031106;-60
2022/09/18 12:07:18;;;;;;;0.00;0.00;;;15.80;94.80;;;;;;5013925;28;20187;-60
2022/09/18 12:09:51;;;;;;;0.00;0.00;;;15.80;94.40;;;;;;5013825;28;20175;-60
2022/09/18 12:12:23;;;;;;;0.00;0.00;;;15.70;93.70;;;;;;5013716;28;20225;-60
2022/09/18 12:15:09;;;;;;;0.17;0.17;;;15.50;94.20;;;;;;5025528;28;20200;-60
2022/09/18 12:17:46;;;;;;;0.00;0.00;;;15.30;94.10;;;;;;5033473;28;20182;-60
2022/09/18 12:20:29;;;;;;;0.00;0.00;;;15.30;94.70;;;;;;5033307;28;20178;-60
2022/09/18 12:23:00;;;;;;;0.00;0.00;;;15.30;95.70;;;;;;5013586;28;20223;-60
2022/09/18 12:25:59;;;;;;;0.00;0.00;;;15.20;95.30;;;;;;5013311;28;20684;-60
2022/09/18 12:28:59;;;;;;;0.00;0.00;;;15.10;95.40;;;;;;5012237;28;20182;-60
2022/09/18 12:31:50;;;;;;;0.00;0.00;;;15.00;94.90;;;;;;5013081;28;20175;-60
2022/09/18 12:34:37;;;;;;;0.00;0.00;;;14.90;94.20;;;;;;5013256;28;20642;-60
2022/09/18 12:37:14;;;;;;;0.00;0.00;;;14.90;94.80;;;;;;5013355;28;20190;-60
2022/09/18 12:39:42;;;;;;;0.00;0.00;;;14.90;94.90;;;;;;5013404;28;20179;-60
2022/09/18 12:42:38;;;;;;;0.00;0.00;;;14.90;95.40;;;;;;5013087;28;20214;-60
2022/09/18 12:45:32;;;;;;;0.00;0.00;;;15.00;95.90;;;;;;5013140;28;20229;-60
2022/09/18 12:48:25;;;;;;;0.00;0.00;;;15.10;95.60;;;;;;5013128;28;20182;-60
2022/09/18 12:51:08;;;;;;;0.10;0.10;;;15.10;95.60;;;;;;5013157;28;20209;-60
2022/09/18 12:53:40;;;;;;;0.00;0.00;;;15.10;95.30;;;;;;5013006;28;20186;-60
2022/09/18 12:56:36;;;;;;;0.00;0.00;;;15.00;95.30;;;;;;5013046;28;20186;-60
2022/09/18 12:59:09;;;;;;;0.00;0.00;;;15.00;95.80;;;;;;5012953;28;20193;-60
2022/09/18 13:01:45;;;;;;;0.00;0.00;;;14.90;95.60;;;;;;5012722;28;20215;-60
2022/09/18 13:04:30;;;;;;;0.00;0.00;;;14.80;95.80;;;;;;5012937;28;20243;-60
2022/09/18 13:07:19;;;;;;;0.00;0.00;;;14.70;96.20;;;;;;5012930;28;20178;-60
2022/09/18 13:09:59;;;;;;;0.00;0.00;;;14.60;96.20;;;;;;5012488;28;20175;-60
2022/09/18 13:12:44;;;;;;;0.00;0.00;;;14.50;96.30;;;;;;5012697;28;20669;-59
2022/09/18 13:15:18;;;;;;;0.00;0.00;;;14.50;96.60;;;;;;5027226;28;20186;-60
2022/09/18 13:17:49;;;;;;;0.00;0.00;;;14.50;96.50;;;;;;5032239;28;20563;-60